createdAt,value
2018-04-10T00:02:14.432Z,13.80
2018-04-10T00:04:56.601Z,13.80
2018-04-10T00:07:25.397Z,13.80
2018-04-10T00:09:53.975Z,13.90
2018-04-10T00:12:22.938Z,13.90
2018-04-10T00:14:52.955Z,13.90
2018-04-10T00:17:22.271Z,13.80
2018-04-10T00:19:55.869Z,12.60
2018-04-10T00:22:24.701Z,13.80
2018-04-10T00:24:57.792Z,13.90
2018-04-10T00:27:28.125Z,13.90
2018-04-10T00:30:00.880Z,13.90
2018-04-10T00:32:30.830Z,13.90
2018-04-10T00:35:04.392Z,13.90
2018-04-10T00:37:33.196Z,14.00
2018-04-10T00:40:06.830Z,13.70
2018-04-10T00:42:35.435Z,14.00
2018-04-10T00:45:09.586Z,13.90
2018-04-10T00:47:39.649Z,13.90
2018-04-10T00:50:15.278Z,13.80
2018-04-10T00:52:44.104Z,13.90
2018-04-10T00:55:13.863Z,13.90
2018-04-10T00:57:42.392Z,13.90
2018-04-10T01:00:15.353Z,13.90
2018-04-10T01:02:44.298Z,13.80
2018-04-10T01:05:17.704Z,13.90
2018-04-10T01:12:49.592Z,13.90
2018-04-10T01:15:22.249Z,13.90
2018-04-10T01:17:52.307Z,13.80
2018-04-10T01:20:24.156Z,13.80
2018-04-10T01:22:53.094Z,13.90
2018-04-10T01:25:26.585Z,13.90
2018-04-10T01:27:57.161Z,13.80
2018-04-10T01:30:28.922Z,13.80
2018-04-10T01:32:57.513Z,13.80
2018-04-10T01:35:29.889Z,13.70
2018-04-10T01:37:58.464Z,13.60
2018-04-10T01:43:02.441Z,13.50
2018-04-10T01:45:35.452Z,13.50
2018-04-10T01:48:04.698Z,13.50
2018-04-10T01:50:46.541Z,13.40
2018-04-10T01:55:44.913Z,13.40
2018-04-10T01:58:13.882Z,13.90
2018-04-10T02:00:43.802Z,13.30
2018-04-10T02:03:13.106Z,13.30
2018-04-10T02:05:46.345Z,13.20
2018-04-10T02:08:15.202Z,13.30
2018-04-10T02:13:34.483Z,13.20
2018-04-10T02:16:03.031Z,13.10
2018-04-10T02:18:33.696Z,13.10
2018-04-10T02:21:02.644Z,13.00
2018-04-10T02:23:31.944Z,13.00
2018-04-10T02:26:01.110Z,12.90
2018-04-10T02:28:29.794Z,12.90
2018-04-10T02:33:28.153Z,12.80
2018-04-10T02:36:02.094Z,12.60
2018-04-10T02:38:31.766Z,12.80
2018-04-10T02:41:04.603Z,12.70
2018-04-10T02:43:33.782Z,12.60
2018-04-10T02:46:06.054Z,13.40
2018-04-10T02:48:36.075Z,12.50
2018-04-10T02:51:09.538Z,12.40
2018-04-10T02:53:38.815Z,12.40
2018-04-10T02:56:11.163Z,12.30
2018-04-10T02:58:39.687Z,12.20
2018-04-10T03:03:42.252Z,12.20
2018-04-10T03:06:16.157Z,12.20
2018-04-10T03:08:44.667Z,12.20
2018-04-10T03:11:18.727Z,12.20
2018-04-10T03:13:47.558Z,12.20
2018-04-10T03:16:21.082Z,12.30
2018-04-10T03:18:49.637Z,12.30
2018-04-10T03:21:22.391Z,12.30
2018-04-10T03:23:50.930Z,12.30
2018-04-10T03:26:23.586Z,12.30
2018-04-10T03:28:52.880Z,12.30
2018-04-10T03:31:26.404Z,12.20
2018-04-10T03:33:56.332Z,12.20
2018-04-10T03:36:40.086Z,12.20
2018-04-10T03:39:09.858Z,12.10
2018-04-10T03:41:39.155Z,12.10
2018-04-10T03:44:08.823Z,12.10
2018-04-10T03:46:38.478Z,12.10
2018-04-10T03:51:37.611Z,12.10
2018-04-10T03:54:06.453Z,12.20
2018-04-10T03:56:39.988Z,12.00
2018-04-10T04:01:50.450Z,12.20
2018-04-10T04:06:49.592Z,12.30
2018-04-10T04:09:18.148Z,12.20
2018-04-10T04:11:47.749Z,12.60
2018-04-10T04:17:58.820Z,12.20
2018-04-10T04:22:42.358Z,12.20
2018-04-10T04:25:11.704Z,12.20
2018-04-10T04:27:41.004Z,12.20
2018-04-10T04:32:40.177Z,12.20
2018-04-10T04:35:08.800Z,12.20
2018-04-10T04:37:38.107Z,12.10
2018-04-10T04:40:07.337Z,12.00
2018-04-10T04:42:36.300Z,11.90
2018-04-10T04:50:07.792Z,11.90
2018-04-10T04:52:36.352Z,11.90
2018-04-10T04:55:18.841Z,11.90
2018-04-10T04:57:47.377Z,11.80
2018-04-10T05:00:16.597Z,11.70
2018-04-10T05:02:45.184Z,11.70
2018-04-10T05:18:29.693Z,12.10
2018-04-10T05:20:58.248Z,11.90
2018-04-10T05:23:27.249Z,12.00
2018-04-10T05:25:56.193Z,12.00
2018-04-10T05:28:26.198Z,12.10
2018-04-10T05:30:55.036Z,12.10
2018-04-10T05:33:37.089Z,12.00
2018-04-10T05:38:36.371Z,12.00
2018-04-10T05:41:05.185Z,12.00
2018-04-10T05:51:03.227Z,12.20
2018-04-10T05:53:36.032Z,13.40
2018-04-10T05:56:05.358Z,12.20
2018-04-10T05:58:40.550Z,12.20
2018-04-10T06:03:43.603Z,12.20
2018-04-10T06:06:12.553Z,12.30
2018-04-10T06:11:12.892Z,12.60
2018-04-10T06:13:45.944Z,12.40
2018-04-10T06:16:14.496Z,12.50
2018-04-10T06:18:48.140Z,12.50
2018-04-10T06:21:16.687Z,12.40
2018-04-10T06:23:49.375Z,12.30
2018-04-10T06:26:18.691Z,12.40
2018-04-10T06:28:52.557Z,12.50
2018-04-10T06:31:22.142Z,12.50
2018-04-10T06:33:56.043Z,12.70
2018-04-10T06:36:25.772Z,12.90
2018-04-10T06:41:29.454Z,12.60
2018-04-10T06:44:11.245Z,12.50
2018-04-10T06:46:39.830Z,12.60
2018-04-10T06:49:08.666Z,12.70
2018-04-10T06:51:38.361Z,12.90
2018-04-10T06:54:07.941Z,13.00
2018-04-10T06:56:36.762Z,13.00
2018-04-10T06:59:10.542Z,12.80
2018-04-10T07:01:40.270Z,12.60
2018-04-10T07:04:13.299Z,12.80
2018-04-10T07:09:02.391Z,12.80
2018-04-10T07:19:00.194Z,12.90
2018-04-10T07:21:29.340Z,12.90
2018-04-10T07:23:57.894Z,12.90
2018-04-10T07:26:26.741Z,13.10
2018-04-10T07:28:56.794Z,12.80
2018-04-10T07:31:25.365Z,13.20
2018-04-10T07:33:53.976Z,13.10
2018-04-10T07:36:34.863Z,13.20
2018-04-10T07:39:06.986Z,13.40
2018-04-10T07:41:35.549Z,13.50
2018-04-10T07:44:04.109Z,13.50
2018-04-10T07:46:33.525Z,13.60
2018-04-10T07:49:02.049Z,13.60
2018-04-10T07:51:34.460Z,13.70
2018-04-10T07:54:04.062Z,13.60
2018-04-10T07:59:04.505Z,13.40
2018-04-10T08:01:38.089Z,13.40
2018-04-10T08:04:07.575Z,13.60
2018-04-10T08:06:40.305Z,13.50
2018-04-10T08:22:26.481Z,13.90
2018-04-10T08:24:56.664Z,13.90
2018-04-10T08:27:25.684Z,13.70
2018-04-10T08:29:55.113Z,13.60
2018-04-10T08:32:23.661Z,13.40
2018-04-10T08:34:54.834Z,13.40
2018-04-10T08:37:24.157Z,13.40
2018-04-10T08:39:56.753Z,13.40
2018-04-10T08:42:26.053Z,13.40
2018-04-10T08:44:59.030Z,13.30
2018-04-10T08:47:27.561Z,13.30
2018-04-10T08:50:02.320Z,13.20
2018-04-10T08:52:31.782Z,13.20
2018-04-10T08:55:04.659Z,13.20
2018-04-10T08:57:34.759Z,13.20
2018-04-10T09:00:15.769Z,13.30
2018-04-10T09:02:45.952Z,14.00
2018-04-10T09:05:14.508Z,14.40
2018-04-10T09:10:14.814Z,13.40
2018-04-10T09:12:44.650Z,13.60
2018-04-10T09:15:16.777Z,13.60
2018-04-10T09:17:47.336Z,13.70
2018-04-10T09:20:18.632Z,13.90
2018-04-10T09:22:47.200Z,13.90
2018-04-10T09:25:20.992Z,14.00
2018-04-10T09:27:49.633Z,14.10
2018-04-10T09:30:26.399Z,14.20
2018-04-10T09:35:26.598Z,14.40
2018-04-10T09:37:55.224Z,14.60
2018-04-10T09:40:27.279Z,14.80
2018-04-10T09:42:56.990Z,15.10
2018-04-10T09:45:29.502Z,15.40
2018-04-10T09:50:32.246Z,15.80
2018-04-10T09:53:01.619Z,15.60
2018-04-10T09:55:34.948Z,15.60
2018-04-10T09:58:03.537Z,15.60
2018-04-10T10:00:44.740Z,15.60
2018-04-10T10:03:14.070Z,15.80
2018-04-10T10:05:42.641Z,16.20
2018-04-10T10:08:12.704Z,16.20
2018-04-10T10:10:42.001Z,16.30
2018-04-10T10:13:10.575Z,16.40
2018-04-10T10:15:51.980Z,16.40
2018-04-10T10:18:20.904Z,16.50
2018-04-10T10:20:50.258Z,16.70
2018-04-10T10:23:18.911Z,17.00
2018-04-10T10:25:48.824Z,16.90
2018-04-10T10:28:18.164Z,17.00
2018-04-10T10:30:59.523Z,17.10
2018-04-10T10:33:28.429Z,16.90
2018-04-10T10:35:57.401Z,17.10
2018-04-10T10:38:26.733Z,16.00
2018-04-10T10:40:56.690Z,17.00
2018-04-10T10:43:26.768Z,17.30
2018-04-10T10:45:59.716Z,17.30
2018-04-10T10:48:31.681Z,17.60
2018-04-10T10:51:03.282Z,17.80
2018-04-10T10:53:33.401Z,17.70
2018-04-10T10:56:04.448Z,17.50
2018-04-10T11:01:07.308Z,18.50
2018-04-10T11:03:37.481Z,18.30
2018-04-10T11:06:10.745Z,18.20
2018-04-10T11:08:40.109Z,18.20
2018-04-10T11:11:21.216Z,18.20
2018-04-10T11:13:50.274Z,18.00
2018-04-10T11:16:19.550Z,17.90
2018-04-10T11:18:49.269Z,17.80
2018-04-10T11:21:18.334Z,18.00
2018-04-10T11:23:47.270Z,18.00
2018-04-10T11:26:20.232Z,18.20
2018-04-10T11:28:49.558Z,18.10
2018-04-10T11:31:20.863Z,18.10
2018-04-10T11:33:49.442Z,17.20
2018-04-10T11:36:31.853Z,18.00
2018-04-10T11:39:06.526Z,18.10
2018-04-10T11:41:35.080Z,18.00
2018-04-10T11:44:04.457Z,18.20
2018-04-10T11:46:34.139Z,18.10
2018-04-10T11:51:33.105Z,18.30
2018-04-10T11:54:02.836Z,18.20
2018-04-10T11:56:32.729Z,18.40
2018-04-10T11:59:01.703Z,18.30
2018-04-10T12:01:35.274Z,18.20
2018-04-10T12:04:03.857Z,19.50
2018-04-10T12:06:44.777Z,18.40
2018-04-10T12:09:14.602Z,18.00
2018-04-10T12:14:12.777Z,17.70
2018-04-10T12:16:42.123Z,17.60
2018-04-10T12:21:44.470Z,17.30
2018-04-10T12:24:14.373Z,17.20
2018-04-10T12:29:01.742Z,17.20
2018-04-10T12:31:32.821Z,17.20
2018-04-10T12:34:02.948Z,17.20
2018-04-10T12:36:32.206Z,17.20
2018-04-10T12:39:01.885Z,17.20
2018-04-10T12:44:00.613Z,17.40
2018-04-10T12:46:29.954Z,17.50
2018-04-10T12:51:29.349Z,17.80
2018-04-10T12:54:00.195Z,17.60
2018-04-10T12:56:28.780Z,17.30
2018-04-10T12:59:02.553Z,17.30
2018-04-10T13:27:34.275Z,17.50
2018-04-10T13:30:03.692Z,17.60
2018-04-10T13:32:32.957Z,17.70
2018-04-10T13:35:02.217Z,17.60
2018-04-10T13:37:32.226Z,17.90
2018-04-10T13:40:01.608Z,17.90
2018-04-10T13:42:30.981Z,17.80
2018-04-10T13:45:00.339Z,17.60
2018-04-10T13:47:29.540Z,17.50
2018-04-10T13:49:59.108Z,17.60
2018-04-10T13:57:40.963Z,17.70
2018-04-10T14:00:09.550Z,17.80
2018-04-10T14:02:38.601Z,17.80
2018-04-10T14:07:37.647Z,18.10
2018-04-10T14:10:07.943Z,17.90
2018-04-10T14:12:37.220Z,18.00
2018-04-10T14:15:07.007Z,18.00
2018-04-10T14:17:39.085Z,18.00
2018-04-10T14:20:07.954Z,18.10
2018-04-10T14:25:20.512Z,18.00
2018-04-10T14:27:49.924Z,18.10
2018-04-10T14:30:19.396Z,18.10
2018-04-10T14:32:48.504Z,18.20
2018-04-10T14:35:17.092Z,18.50
2018-04-10T14:37:50.042Z,17.50
2018-04-10T14:40:20.567Z,18.50
2018-04-10T14:45:25.603Z,18.30
2018-04-10T14:47:55.077Z,18.20
2018-04-10T14:50:24.062Z,18.30
2018-04-10T14:52:57.386Z,18.20
2018-04-10T14:55:27.110Z,18.40
2018-04-10T14:58:00.210Z,18.50
2018-04-10T15:00:29.429Z,18.80
2018-04-10T15:03:06.326Z,18.60
2018-04-10T15:08:05.631Z,18.60
2018-04-10T15:10:34.172Z,19.30
2018-04-10T15:13:09.573Z,18.70
2018-04-10T15:15:38.899Z,18.80
2018-04-10T15:18:11.120Z,18.90
2018-04-10T15:20:39.758Z,18.90
2018-04-10T15:23:21.744Z,18.80
2018-04-10T15:25:51.034Z,18.90
2018-04-10T15:28:19.609Z,19.30
2018-04-10T15:30:49.753Z,19.00
2018-04-10T15:33:18.621Z,19.10
2018-04-10T15:35:47.983Z,19.20
2018-04-10T15:38:20.681Z,18.70
2018-04-10T15:40:50.731Z,18.90
2018-04-10T15:43:22.249Z,18.90
2018-04-10T15:45:54.993Z,19.00
2018-04-10T15:48:25.950Z,19.00
2018-04-10T15:50:54.527Z,19.20
2018-04-10T15:53:26.988Z,19.00
2018-04-10T15:55:55.969Z,19.00
2018-04-10T15:58:36.876Z,18.90
2018-04-10T16:01:07.233Z,19.00
2018-04-10T16:03:37.305Z,18.60
2018-04-10T16:08:35.772Z,18.10
2018-04-10T16:11:05.497Z,17.90
2018-04-10T16:13:34.850Z,17.90
2018-04-10T16:16:05.254Z,17.80
2018-04-10T16:18:37.652Z,17.80
2018-04-10T16:21:08.917Z,17.70
2018-04-10T16:23:39.911Z,17.60
2018-04-10T16:26:10.581Z,17.60
2018-04-10T16:28:41.630Z,17.40
2018-04-10T16:31:10.497Z,17.30
2018-04-10T16:33:47.173Z,17.20
2018-04-10T16:38:47.306Z,17.10
2018-04-10T16:43:51.872Z,17.10
2018-04-10T16:48:51.378Z,17.20
2018-04-10T16:51:19.999Z,17.10
2018-04-10T16:53:52.277Z,17.00
2018-04-10T16:56:22.054Z,16.70
2018-04-10T16:58:56.829Z,16.30
2018-04-10T17:01:27.157Z,15.50
2018-04-10T17:04:08.295Z,15.10
2018-04-10T17:06:37.632Z,14.90
2018-04-10T17:09:07.801Z,14.90
2018-04-10T17:11:37.125Z,15.00
2018-04-10T17:14:06.844Z,14.90
2018-04-10T17:16:35.692Z,14.90
2018-04-10T17:19:06.899Z,14.80
2018-04-10T17:21:35.453Z,14.40
2018-04-10T17:24:10.423Z,14.20
2018-04-10T17:26:39.034Z,12.60
2018-04-10T17:29:21.037Z,13.90
2018-04-10T17:31:50.029Z,13.80
2018-04-10T17:36:48.881Z,13.70
2018-04-10T17:39:17.460Z,13.70
2018-04-10T17:44:19.077Z,13.70
2018-04-10T17:46:47.685Z,13.80
2018-04-10T17:49:21.190Z,13.70
2018-04-10T17:51:49.794Z,13.70
2018-04-10T17:56:53.026Z,13.40
2018-04-10T17:59:25.872Z,13.30
2018-04-10T18:01:54.487Z,13.30
2018-04-10T18:04:27.357Z,13.20
2018-04-10T18:06:57.072Z,12.80
2018-04-10T18:09:29.621Z,13.40
2018-04-10T18:11:58.853Z,13.40
2018-04-10T18:14:40.361Z,13.30
2018-04-10T18:17:09.180Z,13.10
2018-04-10T18:19:37.788Z,13.10
2018-04-10T18:24:37.036Z,12.80
2018-04-10T18:27:05.673Z,12.70
2018-04-10T18:29:38.390Z,12.70
2018-04-10T18:32:07.218Z,12.60
2018-04-10T18:34:40.357Z,12.70
2018-04-10T18:37:08.930Z,12.40
2018-04-10T18:39:42.084Z,12.40
2018-04-10T18:47:14.306Z,12.40
2018-04-10T18:49:48.258Z,12.40
2018-04-10T18:52:17.201Z,12.40
2018-04-10T18:54:50.463Z,12.30
2018-04-10T18:57:19.789Z,12.30
2018-04-10T19:00:01.570Z,12.30
2018-04-10T19:02:31.356Z,12.30
2018-04-10T19:05:00.358Z,12.30
2018-04-10T19:07:29.680Z,12.40
2018-04-10T19:09:58.567Z,12.40
2018-04-10T19:12:28.641Z,12.40
2018-04-10T19:15:10.405Z,12.30
2018-04-10T19:17:39.391Z,12.30
2018-04-10T19:20:07.960Z,13.40
2018-04-10T19:22:37.729Z,11.90
2018-04-10T19:25:07.487Z,12.30
2018-04-10T19:27:37.174Z,12.30
2018-04-10T19:30:10.434Z,12.30
2018-04-10T19:32:39.497Z,12.30
2018-04-10T19:35:11.735Z,12.30
2018-04-10T19:45:16.909Z,12.20
2018-04-10T19:47:46.954Z,12.20
2018-04-10T19:52:46.958Z,12.30
2018-04-10T19:55:20.785Z,12.20
2018-04-10T19:57:50.037Z,12.30
2018-04-10T20:00:21.352Z,12.30
2018-04-10T20:05:23.314Z,12.30
2018-04-10T20:07:53.145Z,12.20
2018-04-10T20:10:26.736Z,12.30
2018-04-10T20:12:55.682Z,12.40
2018-04-10T20:17:58.043Z,12.40
2018-04-10T20:20:32.525Z,12.50
2018-04-10T20:23:01.913Z,12.60
2018-04-10T20:25:35.567Z,12.70
2018-04-10T20:30:37.832Z,12.40
2018-04-10T20:33:07.964Z,12.30
2018-04-10T20:35:38.145Z,12.20
2018-04-10T20:38:07.202Z,12.20
2018-04-10T20:40:40.000Z,13.50
2018-04-10T20:43:08.902Z,12.00
2018-04-10T20:45:43.229Z,12.10
2018-04-10T20:48:12.597Z,12.10
2018-04-10T20:53:14.357Z,12.20
2018-04-10T20:55:47.864Z,12.20
2018-04-10T20:58:17.509Z,12.10
2018-04-10T21:00:50.277Z,12.00
2018-04-10T21:06:00.824Z,11.40
2018-04-10T21:08:29.360Z,11.30
2018-04-10T21:10:58.770Z,11.90
2018-04-10T21:13:28.458Z,11.40
2018-04-10T21:15:58.878Z,11.30
2018-04-10T21:21:01.193Z,10.80
2018-04-10T21:23:31.547Z,11.30
2018-04-10T21:26:04.568Z,11.20
2018-04-10T21:28:33.757Z,11.20
2018-04-10T21:31:07.302Z,11.10
2018-04-10T21:33:37.162Z,11.10
2018-04-10T21:36:09.983Z,11.00
2018-04-10T21:38:39.377Z,11.00
2018-04-10T21:41:12.515Z,11.00
2018-04-10T21:43:42.802Z,11.00
2018-04-10T21:46:16.262Z,11.00
2018-04-10T21:48:44.844Z,11.00
2018-04-10T21:51:16.821Z,11.00
2018-04-10T21:53:45.352Z,10.90
2018-04-10T21:56:18.853Z,10.80
2018-04-10T21:58:47.453Z,10.80
2018-04-10T22:03:50.696Z,10.70
2018-04-10T22:06:23.377Z,10.70
2018-04-10T22:08:53.065Z,10.70
2018-04-10T22:18:56.544Z,10.80
2018-04-10T22:31:34.457Z,10.70
2018-04-10T22:36:35.797Z,10.80
2018-04-10T22:39:05.767Z,10.80
2018-04-10T22:41:38.428Z,10.90
2018-04-10T22:44:07.272Z,11.00
2018-04-10T22:46:40.148Z,10.90
2018-04-10T22:49:08.916Z,11.00
2018-04-10T22:51:42.460Z,11.00
2018-04-10T22:56:44.998Z,11.00
2018-04-10T22:59:13.979Z,11.10
2018-04-10T23:01:48.944Z,11.10
2018-04-10T23:04:18.581Z,11.00
2018-04-10T23:06:50.940Z,11.00
2018-04-10T23:09:19.962Z,10.90
2018-04-10T23:14:22.177Z,10.90
2018-04-10T23:16:57.879Z,11.00
2018-04-10T23:19:27.470Z,10.90
2018-04-10T23:21:59.849Z,10.90
2018-04-10T23:24:28.462Z,10.80
2018-04-10T23:27:10.150Z,11.50
2018-04-10T23:29:39.877Z,10.90
2018-04-10T23:32:09.352Z,10.90
2018-04-10T23:34:38.177Z,11.00
2018-04-10T23:37:07.215Z,11.30
2018-04-10T23:39:37.764Z,11.00
2018-04-10T23:42:09.256Z,10.90
2018-04-10T23:44:39.040Z,10.90
2018-04-10T23:47:11.966Z,10.90
2018-04-10T23:49:42.216Z,10.80
2018-04-10T23:52:14.112Z,10.80
2018-04-10T23:54:43.517Z,10.80
2018-04-10T23:57:16.744Z,10.80
2018-04-10T23:59:45.287Z,10.90
